createdAt,value
2023-09-23T00:00:35.860Z,1.33
2023-09-23T00:03:02.727Z,2.53
2023-09-23T00:05:30.484Z,2.72
2023-09-23T00:07:58.162Z,1.90
2023-09-23T00:10:24.972Z,3.63
2023-09-23T00:12:51.811Z,2.90
2023-09-23T00:15:20.376Z,5.03
2023-09-23T00:17:55.004Z,2.70
2023-09-23T00:20:23.279Z,3.15
2023-09-23T00:22:58.350Z,2.88
2023-09-23T00:25:27.276Z,2.78
2023-09-23T00:27:56.817Z,1.77
2023-09-23T00:30:27.860Z,2.78
2023-09-23T00:32:55.233Z,2.20
2023-09-23T00:35:22.874Z,4.28
2023-09-23T00:37:50.900Z,3.22
2023-09-23T00:40:18.578Z,2.63
2023-09-23T00:42:49.618Z,2.85
2023-09-23T00:45:20.742Z,4.00
2023-09-23T00:47:48.297Z,2.28
2023-09-23T00:50:21.979Z,5.53
2023-09-23T00:52:53.564Z,2.35
2023-09-23T00:55:21.584Z,3.60
2023-09-23T00:57:50.246Z,1.48
2023-09-23T01:00:27.118Z,4.57
2023-09-23T01:02:57.791Z,2.90
2023-09-23T01:05:28.460Z,2.03
2023-09-23T01:07:57.489Z,3.03
2023-09-23T01:10:31.305Z,1.45
2023-09-23T01:12:58.229Z,1.83
2023-09-23T01:15:27.303Z,1.65
2023-09-23T01:17:55.689Z,2.55
2023-09-23T01:20:23.820Z,2.90
2023-09-23T01:22:50.668Z,2.55
2023-09-23T01:25:18.228Z,3.00
2023-09-23T01:27:46.429Z,2.20
2023-09-23T01:30:14.267Z,4.60
2023-09-23T01:32:52.938Z,1.80
2023-09-23T01:35:21.638Z,1.38
2023-09-23T01:37:49.936Z,1.90
2023-09-23T01:40:18.837Z,1.52
2023-09-23T01:42:50.459Z,3.50
2023-09-23T01:45:20.254Z,1.70
2023-09-23T01:47:47.447Z,2.40
2023-09-23T01:50:14.874Z,1.70
2023-09-23T01:52:42.116Z,2.15
2023-09-23T01:55:11.777Z,2.40
2023-09-23T01:57:39.158Z,2.22
2023-09-23T02:00:16.211Z,2.20
2023-09-23T02:02:45.476Z,2.80
2023-09-23T02:05:12.411Z,2.42
2023-09-23T02:07:40.864Z,2.47
2023-09-23T02:10:12.575Z,2.00
2023-09-23T02:15:07.637Z,2.15
2023-09-23T02:17:37.482Z,1.65
2023-09-23T02:20:30.869Z,2.60
2023-09-23T02:22:59.537Z,2.60
2023-09-23T02:25:26.796Z,2.63
2023-09-23T02:27:54.521Z,3.08
2023-09-23T02:30:24.517Z,2.30
2023-09-23T02:32:51.472Z,2.17
2023-09-23T02:35:37.537Z,1.35
2023-09-23T02:38:05.466Z,2.30
2023-09-23T02:40:32.754Z,1.95
2023-09-23T02:43:02.345Z,2.90
2023-09-23T02:45:29.266Z,1.95
2023-09-23T02:48:09.899Z,2.30
2023-09-23T02:50:42.131Z,2.47
2023-09-23T02:53:14.172Z,3.97
2023-09-23T02:55:45.904Z,2.40
2023-09-23T02:58:14.653Z,3.15
2023-09-23T03:00:42.232Z,2.47
2023-09-23T03:03:22.442Z,4.35
2023-09-23T03:05:56.766Z,2.40
2023-09-23T03:08:23.922Z,1.50
2023-09-23T03:10:53.440Z,1.83
2023-09-23T03:13:24.940Z,2.85
2023-09-23T03:15:57.521Z,1.92
2023-09-23T03:18:42.993Z,1.92
2023-09-23T03:21:10.354Z,3.53
2023-09-23T03:23:40.558Z,1.85
2023-09-23T03:26:12.160Z,2.50
2023-09-23T03:28:47.730Z,3.08
2023-09-23T03:31:37.596Z,2.47
2023-09-23T03:34:13.483Z,1.83
2023-09-23T03:36:46.002Z,2.58
2023-09-23T03:39:20.376Z,2.13
2023-09-23T03:42:03.183Z,2.78
2023-09-23T03:44:40.542Z,2.08
2023-09-23T03:47:13.601Z,2.13
2023-09-23T03:50:16.871Z,1.65
2023-09-23T03:52:48.727Z,4.38
2023-09-23T03:55:26.483Z,2.60
2023-09-23T03:58:03.443Z,3.80
2023-09-23T04:00:31.078Z,2.28
2023-09-23T04:03:03.589Z,2.50
2023-09-23T04:05:32.793Z,2.28
2023-09-23T04:07:59.758Z,2.15
2023-09-23T04:10:29.622Z,1.95
2023-09-23T04:12:56.661Z,2.70
2023-09-23T04:15:25.528Z,2.42
2023-09-23T04:17:57.028Z,1.92
2023-09-23T04:20:24.357Z,2.75
2023-09-23T04:22:51.922Z,2.58
2023-09-23T04:25:22.660Z,1.65
2023-09-23T04:27:51.682Z,2.50
2023-09-23T04:30:18.513Z,1.70
2023-09-23T04:32:47.104Z,2.33
2023-09-23T04:35:16.480Z,2.03
2023-09-23T04:37:43.380Z,1.80
2023-09-23T04:40:12.281Z,3.20
2023-09-23T04:42:43.271Z,3.35
2023-09-23T04:45:11.554Z,1.83
2023-09-23T04:47:39.524Z,1.65
2023-09-23T04:50:08.842Z,3.03
2023-09-23T04:52:36.499Z,2.40
2023-09-23T04:55:04.175Z,1.85
2023-09-23T04:57:32.606Z,2.88
2023-09-23T05:00:01.328Z,2.22
2023-09-23T05:02:28.345Z,2.42
2023-09-23T05:04:55.784Z,4.40
2023-09-23T05:07:28.033Z,2.17
2023-09-23T05:09:59.014Z,4.00
2023-09-23T05:12:28.297Z,3.17
2023-09-23T05:14:58.350Z,3.00
2023-09-23T05:17:29.618Z,2.20
2023-09-23T05:19:56.519Z,2.00
2023-09-23T05:22:23.660Z,2.70
2023-09-23T05:24:57.799Z,2.72
2023-09-23T05:27:26.038Z,2.53
2023-09-23T05:29:53.209Z,2.22
2023-09-23T05:32:21.589Z,2.53
2023-09-23T05:34:52.775Z,2.70
2023-09-23T05:37:20.384Z,2.90
2023-09-23T05:39:48.357Z,2.15
2023-09-23T05:42:18.834Z,2.20
2023-09-23T05:44:47.869Z,2.22
2023-09-23T05:47:14.755Z,2.78
2023-09-23T05:49:45.285Z,3.53
2023-09-23T05:52:15.675Z,3.78
2023-09-23T05:54:42.507Z,2.28
2023-09-23T05:57:09.388Z,1.98
2023-09-23T05:59:36.220Z,2.42
2023-09-23T06:02:09.498Z,2.40
2023-09-23T06:04:36.953Z,4.05
2023-09-23T06:07:05.772Z,3.00
2023-09-23T06:09:32.890Z,3.15
2023-09-23T06:11:59.732Z,4.55
2023-09-23T06:14:26.683Z,4.40
2023-09-23T06:16:53.528Z,2.58
2023-09-23T06:19:20.852Z,1.45
2023-09-23T06:21:48.506Z,2.47
2023-09-23T06:24:15.342Z,2.65
2023-09-23T06:26:44.120Z,3.17
2023-09-23T06:29:11.064Z,1.63
2023-09-23T06:31:37.957Z,2.65
2023-09-23T06:34:06.049Z,2.08
2023-09-23T06:36:34.107Z,2.80
2023-09-23T06:39:01.147Z,2.80
2023-09-23T06:41:30.754Z,2.85
2023-09-23T06:43:59.805Z,4.63
2023-09-23T06:46:27.184Z,2.40
2023-09-23T06:48:54.954Z,2.60
2023-09-23T06:51:21.808Z,2.97
2023-09-23T06:53:49.154Z,1.40
2023-09-23T06:56:17.451Z,2.20
2023-09-23T06:58:44.187Z,2.17
2023-09-23T07:01:10.921Z,3.05
2023-09-23T07:03:37.737Z,2.80
2023-09-23T07:06:04.778Z,3.58
2023-09-23T07:08:31.561Z,2.55
2023-09-23T07:10:58.390Z,2.95
2023-09-23T07:13:25.288Z,12.02
2023-09-23T07:15:52.398Z,1.88
2023-09-23T07:18:20.874Z,1.95
2023-09-23T07:20:47.667Z,2.50
2023-09-23T07:23:14.578Z,3.42
2023-09-23T07:25:43.309Z,3.17
2023-09-23T07:28:10.149Z,2.90
2023-09-23T07:30:39.365Z,5.47
2023-09-23T07:33:06.511Z,1.95
2023-09-23T07:35:34.430Z,1.65
2023-09-23T07:38:02.127Z,3.08
2023-09-23T07:40:32.176Z,2.88
2023-09-23T07:42:59.452Z,2.88
2023-09-23T07:45:26.868Z,2.42
2023-09-23T07:47:53.998Z,2.80
2023-09-23T07:50:21.962Z,3.17
2023-09-23T07:52:49.205Z,3.05
2023-09-23T07:55:16.122Z,2.58
2023-09-23T07:57:43.237Z,3.97
2023-09-23T08:00:10.772Z,2.78
2023-09-23T08:02:43.535Z,4.13
2023-09-23T08:05:10.737Z,5.57
2023-09-23T08:07:37.539Z,1.67
2023-09-23T08:10:06.182Z,2.95
2023-09-23T08:12:36.013Z,2.58
2023-09-23T08:15:03.013Z,3.45
2023-09-23T08:17:29.906Z,2.97
2023-09-23T08:19:56.862Z,2.05
2023-09-23T08:22:23.618Z,2.25
2023-09-23T08:24:52.583Z,3.13
2023-09-23T08:27:19.390Z,3.22
2023-09-23T08:29:46.267Z,2.50
2023-09-23T08:32:15.279Z,1.98
2023-09-23T08:34:42.087Z,3.63
2023-09-23T08:37:08.977Z,2.05
2023-09-23T08:39:36.026Z,2.97
2023-09-23T08:42:05.458Z,3.90
2023-09-23T08:44:34.617Z,4.82
2023-09-23T08:47:01.676Z,4.07
2023-09-23T08:49:30.161Z,2.70
2023-09-23T08:51:58.420Z,2.47
2023-09-23T08:54:28.551Z,4.13
2023-09-23T08:56:56.121Z,3.25
2023-09-23T08:59:23.211Z,3.60
2023-09-23T09:01:50.381Z,2.38
2023-09-23T09:04:17.436Z,3.00
2023-09-23T09:06:55.165Z,2.55
2023-09-23T09:09:22.224Z,2.13
2023-09-23T09:11:51.159Z,4.13
2023-09-23T09:14:18.817Z,2.10
2023-09-23T09:16:46.767Z,2.28
2023-09-23T09:19:13.968Z,3.78
2023-09-23T09:21:42.373Z,3.05
2023-09-23T09:24:11.826Z,4.75
2023-09-23T09:26:41.801Z,3.20
2023-09-23T09:29:09.163Z,2.75
2023-09-23T09:31:36.867Z,2.47
2023-09-23T09:34:10.877Z,3.28
2023-09-23T09:36:39.727Z,3.35
2023-09-23T09:39:10.394Z,5.28
2023-09-23T09:41:44.075Z,2.93
2023-09-23T09:44:12.395Z,3.35
2023-09-23T09:46:41.802Z,3.38
2023-09-23T09:49:08.953Z,2.97
2023-09-23T09:51:36.900Z,5.68
2023-09-23T09:54:05.383Z,2.67
2023-09-23T09:56:34.433Z,2.65
2023-09-23T09:59:04.886Z,3.42
2023-09-23T10:01:32.236Z,3.88
2023-09-23T10:04:00.406Z,2.53
2023-09-23T10:06:27.644Z,3.08
2023-09-23T10:08:55.094Z,4.20
2023-09-23T10:11:38.308Z,3.47
2023-09-23T10:14:17.528Z,3.05
2023-09-23T10:16:53.398Z,3.42
2023-09-23T10:19:31.071Z,4.38
2023-09-23T10:22:21.880Z,8.57
2023-09-23T10:25:08.131Z,4.68
2023-09-23T10:27:37.941Z,2.13
2023-09-23T10:30:05.628Z,3.22
2023-09-23T10:32:32.611Z,4.43
2023-09-23T10:35:00.467Z,2.60
2023-09-23T10:37:32.638Z,3.40
2023-09-23T10:40:18.573Z,3.88
2023-09-23T10:42:47.923Z,3.03
2023-09-23T10:45:15.609Z,2.10
2023-09-23T10:47:44.999Z,2.50
2023-09-23T10:50:12.548Z,2.20
2023-09-23T10:52:40.727Z,1.67
2023-09-23T10:55:10.383Z,2.25
2023-09-23T10:57:38.942Z,2.08
2023-09-23T11:00:19.774Z,3.00
2023-09-23T11:02:51.915Z,2.20
2023-09-23T11:05:21.532Z,4.25
2023-09-23T11:07:51.262Z,2.17
2023-09-23T11:10:19.530Z,2.63
2023-09-23T11:12:47.821Z,4.32
2023-09-23T11:15:14.755Z,2.05
2023-09-23T11:17:43.084Z,3.00
2023-09-23T11:20:11.444Z,4.53
2023-09-23T11:22:39.920Z,3.40
2023-09-23T11:25:12.962Z,2.10
2023-09-23T11:27:45.969Z,3.22
2023-09-23T11:30:13.396Z,3.60
2023-09-23T11:32:41.426Z,2.85
2023-09-23T11:35:08.711Z,1.52
2023-09-23T11:37:35.460Z,2.20
2023-09-23T11:40:02.245Z,2.90
2023-09-23T11:42:29.965Z,2.30
2023-09-23T11:44:57.077Z,2.97
2023-09-23T11:47:24.049Z,5.72
2023-09-23T11:49:53.426Z,3.03
2023-09-23T11:52:20.414Z,3.05
2023-09-23T11:54:47.328Z,2.33
2023-09-23T11:57:14.928Z,2.28
2023-09-23T11:59:41.773Z,1.92
2023-09-23T12:02:10.143Z,2.58
2023-09-23T12:04:37.461Z,2.65
2023-09-23T12:07:07.155Z,5.43
2023-09-23T12:09:37.443Z,2.55
2023-09-23T12:12:05.520Z,3.55
2023-09-23T12:14:32.317Z,2.92
2023-09-23T12:16:59.378Z,2.35
2023-09-23T12:19:26.088Z,2.60
2023-09-23T12:21:52.917Z,2.25
2023-09-23T12:24:24.954Z,2.55
2023-09-23T12:26:51.664Z,3.50
2023-09-23T12:29:18.489Z,2.83
2023-09-23T12:31:45.417Z,2.90
2023-09-23T12:34:13.217Z,2.42
2023-09-23T12:36:40.289Z,2.90
2023-09-23T12:39:11.259Z,3.03
2023-09-23T12:41:38.233Z,4.57
2023-09-23T12:44:05.558Z,3.40
2023-09-23T12:46:32.331Z,2.85
2023-09-23T12:48:59.289Z,2.17
2023-09-23T12:51:29.188Z,2.42
2023-09-23T12:53:56.097Z,1.92
2023-09-23T12:56:23.128Z,3.53
2023-09-23T12:58:50.123Z,2.30
2023-09-23T13:01:19.204Z,2.42
2023-09-23T13:03:46.562Z,3.75
2023-09-23T13:06:13.531Z,2.08
2023-09-23T13:08:40.562Z,2.65
2023-09-23T13:11:08.463Z,2.65
2023-09-23T13:13:35.357Z,4.57
2023-09-23T13:16:02.554Z,2.47
2023-09-23T13:18:31.390Z,2.67
2023-09-23T13:20:58.222Z,1.55
2023-09-23T13:23:25.514Z,2.33
2023-09-23T13:25:52.542Z,5.40
2023-09-23T13:28:22.270Z,3.17
2023-09-23T13:30:49.845Z,4.57
2023-09-23T13:33:17.932Z,1.88
2023-09-23T13:35:44.921Z,2.28
2023-09-23T13:38:11.724Z,3.85
2023-09-23T13:40:41.028Z,4.95
2023-09-23T13:43:08.269Z,4.32
2023-09-23T13:45:35.011Z,3.90
2023-09-23T13:48:02.660Z,2.70
2023-09-23T13:50:29.830Z,3.60
2023-09-23T13:52:56.639Z,3.40
2023-09-23T13:55:23.385Z,1.98
2023-09-23T13:57:50.379Z,3.00
2023-09-23T14:00:17.372Z,2.55
2023-09-23T14:02:44.474Z,4.50
2023-09-23T14:05:12.046Z,2.00
2023-09-23T14:07:41.649Z,2.63
2023-09-23T14:10:20.446Z,2.47
2023-09-23T14:12:48.816Z,2.63
2023-09-23T14:15:15.789Z,2.75
2023-09-23T14:17:42.712Z,3.15
2023-09-23T14:20:14.144Z,3.70
2023-09-23T14:22:46.163Z,2.45
2023-09-23T14:25:13.922Z,3.20
2023-09-23T14:27:41.337Z,2.22
2023-09-23T14:30:09.548Z,2.10
2023-09-23T14:32:36.828Z,3.08
2023-09-23T14:35:05.492Z,2.88
2023-09-23T14:37:32.832Z,2.15
2023-09-23T14:40:00.650Z,4.50
2023-09-23T14:42:28.352Z,3.75
2023-09-23T14:44:55.149Z,2.65
2023-09-23T14:47:22.112Z,2.55
2023-09-23T14:49:49.110Z,2.58
2023-09-23T14:52:15.908Z,1.80
2023-09-23T14:54:42.876Z,2.45
2023-09-23T14:57:09.796Z,3.28
2023-09-23T14:59:36.906Z,3.42
2023-09-23T15:02:04.388Z,3.72
2023-09-23T15:04:34.054Z,2.42
2023-09-23T15:07:01.274Z,2.60
2023-09-23T15:09:28.450Z,3.10
2023-09-23T15:11:55.217Z,2.65
2023-09-23T15:14:22.173Z,2.03
2023-09-23T15:16:51.430Z,2.92
2023-09-23T15:19:21.642Z,3.80
2023-09-23T15:21:48.914Z,2.00
2023-09-23T15:24:15.699Z,2.88
2023-09-23T15:26:43.445Z,4.05
2023-09-23T15:29:11.241Z,2.08
2023-09-23T15:31:38.574Z,2.50
2023-09-23T15:34:05.423Z,2.90
2023-09-23T15:36:32.368Z,3.00
2023-09-23T15:38:59.581Z,4.93
2023-09-23T15:41:27.500Z,4.43
2023-09-23T15:43:54.338Z,2.67
2023-09-23T15:46:21.573Z,3.20
2023-09-23T15:48:48.732Z,3.45
2023-09-23T15:51:16.242Z,3.17
2023-09-23T15:53:43.797Z,2.22
2023-09-23T15:56:13.528Z,2.25
2023-09-23T15:58:40.891Z,2.97
2023-09-23T16:01:07.952Z,2.88
2023-09-23T16:03:35.770Z,1.63
2023-09-23T16:06:05.236Z,2.53
2023-09-23T16:08:32.050Z,3.30
2023-09-23T16:10:59.057Z,2.72
2023-09-23T16:13:28.247Z,4.25
2023-09-23T16:15:55.281Z,1.48
2023-09-23T16:18:23.299Z,1.45
2023-09-23T16:20:52.924Z,3.27
2023-09-23T16:23:20.095Z,2.90
2023-09-23T16:25:47.306Z,2.53
2023-09-23T16:28:14.306Z,2.40
2023-09-23T16:30:45.032Z,2.70
2023-09-23T16:33:13.327Z,2.22
2023-09-23T16:35:40.266Z,5.95
2023-09-23T16:38:07.064Z,2.35
2023-09-23T16:40:33.835Z,3.45
2023-09-23T16:43:08.433Z,2.47
2023-09-23T16:45:35.401Z,3.78
2023-09-23T16:48:02.327Z,1.95
2023-09-23T16:50:30.598Z,2.00
2023-09-23T16:52:57.758Z,2.75
2023-09-23T16:55:24.770Z,3.35
2023-09-23T16:57:51.670Z,2.47
2023-09-23T17:00:18.907Z,1.90
2023-09-23T17:02:48.058Z,2.75
2023-09-23T17:05:15.021Z,3.20
2023-09-23T17:07:41.768Z,3.90
2023-09-23T17:10:09.560Z,2.83
2023-09-23T17:12:36.447Z,2.25
2023-09-23T17:15:05.953Z,3.20
2023-09-23T17:17:33.078Z,3.25
2023-09-23T17:20:00.429Z,3.33
2023-09-23T17:22:27.178Z,4.53
2023-09-23T17:24:53.962Z,3.35
2023-09-23T17:27:20.754Z,2.67
2023-09-23T17:29:47.656Z,4.63
2023-09-23T17:32:14.524Z,2.70
2023-09-23T17:34:41.372Z,3.92
2023-09-23T17:37:11.625Z,4.57
2023-09-23T17:39:38.516Z,2.20
2023-09-23T17:42:05.546Z,4.22
2023-09-23T17:44:32.422Z,2.15
2023-09-23T17:46:59.749Z,3.72
2023-09-23T17:49:29.062Z,3.33
2023-09-23T17:51:55.976Z,1.88
2023-09-23T17:54:25.358Z,2.25
2023-09-23T17:56:53.328Z,3.17
2023-09-23T17:59:22.394Z,3.13
2023-09-23T18:01:49.685Z,3.20
2023-09-23T18:04:17.156Z,2.85
2023-09-23T18:06:43.968Z,2.35
2023-09-23T18:09:11.112Z,2.67
2023-09-23T18:11:38.586Z,2.60
2023-09-23T18:14:05.456Z,3.00
2023-09-23T18:16:32.491Z,3.67
2023-09-23T18:18:59.681Z,2.65
2023-09-23T18:21:26.960Z,3.80
2023-09-23T18:23:53.761Z,2.08
2023-09-23T18:26:20.733Z,2.47
2023-09-23T18:28:47.870Z,2.28
2023-09-23T18:31:14.785Z,2.50
2023-09-23T18:33:42.218Z,6.30
2023-09-23T18:36:09.227Z,2.47
2023-09-23T18:38:36.124Z,3.65
2023-09-23T18:41:03.205Z,3.22
2023-09-23T18:43:30.088Z,3.92
2023-09-23T18:45:57.104Z,2.33
2023-09-23T18:48:30.966Z,2.80
2023-09-23T18:50:59.586Z,4.22
2023-09-23T18:53:26.492Z,2.80
2023-09-23T18:55:56.366Z,4.32
2023-09-23T18:58:25.231Z,4.57
2023-09-23T19:00:52.016Z,5.03
2023-09-23T19:03:19.264Z,5.05
2023-09-23T19:05:47.517Z,4.45
2023-09-23T19:08:14.660Z,4.47
2023-09-23T19:10:41.462Z,3.60
2023-09-23T19:13:08.721Z,4.28
2023-09-23T19:15:35.713Z,4.35
2023-09-23T19:18:02.919Z,4.65
2023-09-23T19:20:30.143Z,3.13
2023-09-23T19:22:57.070Z,3.15
2023-09-23T19:25:23.919Z,4.47
2023-09-23T19:27:50.844Z,2.90
2023-09-23T19:30:17.835Z,4.03
2023-09-23T19:32:44.823Z,3.85
2023-09-23T19:35:12.982Z,3.50
2023-09-23T19:37:42.324Z,3.80
2023-09-23T19:40:10.102Z,3.83
2023-09-23T19:42:37.812Z,4.90
2023-09-23T19:45:05.669Z,6.47
2023-09-23T19:47:33.332Z,5.50
2023-09-23T19:50:01.506Z,3.80
2023-09-23T19:52:30.370Z,3.42
2023-09-23T19:54:57.634Z,4.18
2023-09-23T19:57:25.945Z,5.22
2023-09-23T19:59:55.531Z,3.70
2023-09-23T20:02:23.822Z,2.60
2023-09-23T20:04:50.638Z,3.40
2023-09-23T20:07:17.889Z,5.68
2023-09-23T20:09:45.180Z,4.30
2023-09-23T20:12:12.438Z,4.85
2023-09-23T20:14:39.382Z,2.95
2023-09-23T20:17:12.329Z,3.33
2023-09-23T20:19:39.667Z,3.58
2023-09-23T20:22:08.608Z,3.42
2023-09-23T20:24:35.332Z,3.92
2023-09-23T20:27:02.315Z,3.55
2023-09-23T20:29:29.617Z,4.32
2023-09-23T20:31:56.849Z,3.17
2023-09-23T20:34:24.928Z,3.05
2023-09-23T20:36:51.841Z,3.45
2023-09-23T20:39:21.235Z,4.45
2023-09-23T20:41:49.855Z,5.22
2023-09-23T20:44:16.812Z,4.13
2023-09-23T20:46:44.525Z,10.80
2023-09-23T20:49:13.955Z,9.27
2023-09-23T20:51:41.179Z,9.02
2023-09-23T20:54:09.862Z,10.02
2023-09-23T20:56:42.256Z,11.00
2023-09-23T20:59:10.842Z,14.70
2023-09-23T21:01:37.667Z,9.48
2023-09-23T21:04:05.340Z,9.70
2023-09-23T21:06:34.865Z,10.38
2023-09-23T21:09:02.903Z,11.30
2023-09-23T21:11:29.708Z,12.77
2023-09-23T21:13:58.935Z,14.15
2023-09-23T21:16:27.058Z,11.82
2023-09-23T21:18:53.905Z,10.77
2023-09-23T21:21:20.760Z,13.27
2023-09-23T21:23:50.004Z,13.13
2023-09-23T21:26:17.003Z,11.25
2023-09-23T21:28:44.083Z,12.45
2023-09-23T21:31:11.930Z,10.35
2023-09-23T21:33:38.826Z,10.90
2023-09-23T21:36:08.145Z,11.45
2023-09-23T21:38:35.049Z,8.77
2023-09-23T21:41:02.045Z,11.30
2023-09-23T21:43:30.089Z,6.72
2023-09-23T21:45:57.733Z,7.85
2023-09-23T21:48:25.306Z,8.15
2023-09-23T21:50:59.702Z,5.97
2023-09-23T21:53:28.505Z,5.53
2023-09-23T21:56:01.963Z,4.30
2023-09-23T21:58:29.477Z,4.65
2023-09-23T22:00:57.569Z,6.30
2023-09-23T22:03:24.814Z,3.80
2023-09-23T22:05:51.798Z,4.35
2023-09-23T22:08:20.584Z,4.45
2023-09-23T22:10:50.026Z,5.13
2023-09-23T22:13:20.169Z,6.00
2023-09-23T22:15:49.841Z,3.75
2023-09-23T22:18:18.020Z,4.15
2023-09-23T22:20:44.958Z,3.45
2023-09-23T22:23:14.204Z,3.85
2023-09-23T22:25:41.584Z,4.78
2023-09-23T22:28:16.938Z,4.18
2023-09-23T22:30:51.767Z,3.58
2023-09-23T22:33:18.767Z,4.57
2023-09-23T22:35:45.715Z,4.07
2023-09-23T22:38:12.541Z,3.80
2023-09-23T22:40:39.396Z,5.32
2023-09-23T22:43:06.907Z,4.13
2023-09-23T22:48:06.696Z,6.10
2023-09-23T22:50:33.720Z,3.42
2023-09-23T22:53:00.633Z,4.78
2023-09-23T22:55:27.379Z,3.72
2023-09-23T22:57:55.840Z,4.30
2023-09-23T23:00:27.369Z,4.78
2023-09-23T23:02:56.397Z,3.90
2023-09-23T23:05:24.035Z,5.10
2023-09-23T23:07:51.511Z,4.32
2023-09-23T23:10:18.800Z,3.60
2023-09-23T23:12:47.408Z,3.83
2023-09-23T23:15:17.342Z,3.20
2023-09-23T23:17:45.922Z,3.95
2023-09-23T23:20:23.548Z,3.08
2023-09-23T23:22:51.509Z,3.95
2023-09-23T23:25:18.884Z,4.47
2023-09-23T23:27:48.293Z,3.13
2023-09-23T23:30:17.701Z,3.75
2023-09-23T23:32:47.138Z,3.58
2023-09-23T23:35:18.013Z,2.88
2023-09-23T23:37:46.569Z,3.73
2023-09-23T23:40:13.360Z,3.63
2023-09-23T23:42:41.476Z,4.43
2023-09-23T23:45:08.853Z,5.50
2023-09-23T23:47:35.675Z,5.70
2023-09-23T23:50:03.979Z,4.65
2023-09-23T23:52:31.043Z,3.58
2023-09-23T23:54:58.418Z,6.18
2023-09-23T23:57:26.498Z,4.13
2023-09-23T23:59:53.800Z,5.20
